createdAt,value
2019-05-28T00:00:51.362Z,81.03
2019-05-28T00:05:57.131Z,81.09
2019-05-28T00:11:02.901Z,80.69
2019-05-28T00:16:10.122Z,80.69
2019-05-28T00:21:16.271Z,80.92
2019-05-28T00:26:23.065Z,80.64
2019-05-28T00:31:29.037Z,80.65
2019-05-28T00:36:35.044Z,80.87
2019-05-28T00:41:40.978Z,80.83
2019-05-28T00:46:47.315Z,80.71
2019-05-28T00:51:54.558Z,80.54
2019-05-28T00:57:00.926Z,80.52
2019-05-28T01:02:06.729Z,80.29
2019-05-28T01:07:14.000Z,80.12
2019-05-28T01:12:19.870Z,80.00
2019-05-28T01:17:25.840Z,80.45
2019-05-28T01:22:31.707Z,80.63
2019-05-28T01:27:37.578Z,80.17
2019-05-28T01:32:43.450Z,79.32
2019-05-28T01:37:49.419Z,79.00
2019-05-28T01:42:55.386Z,78.78
2019-05-28T01:48:01.360Z,78.50
2019-05-28T01:53:07.227Z,78.06
2019-05-28T01:58:13.097Z,79.57
2019-05-28T02:03:18.967Z,78.85
2019-05-28T02:08:24.832Z,78.50
2019-05-28T02:13:30.625Z,78.15
2019-05-28T02:18:37.696Z,78.43
2019-05-28T02:23:43.666Z,77.90
2019-05-28T02:28:49.636Z,77.75
2019-05-28T02:33:55.503Z,78.51
2019-05-28T02:39:01.375Z,77.56
2019-05-28T02:44:08.777Z,77.35
2019-05-28T02:49:14.878Z,77.74
2019-05-28T02:54:21.132Z,78.15
2019-05-28T02:59:28.431Z,78.18
2019-05-28T03:04:36.781Z,77.97
2019-05-28T03:09:44.572Z,77.97
2019-05-28T03:14:50.445Z,77.68
2019-05-28T03:19:56.726Z,78.94
2019-05-28T03:25:06.276Z,78.43
2019-05-28T03:30:12.905Z,78.41
2019-05-28T03:35:19.319Z,80.29
2019-05-28T03:40:44.844Z,80.93
2019-05-28T03:45:50.847Z,79.70
2019-05-28T03:50:57.029Z,79.62
2019-05-28T03:56:03.182Z,79.31
2019-05-28T04:01:09.367Z,79.96
2019-05-28T04:06:15.594Z,79.71
2019-05-28T04:11:21.437Z,79.88
2019-05-28T04:16:27.282Z,80.18
2019-05-28T04:21:33.251Z,80.43
2019-05-28T04:26:39.229Z,80.65
2019-05-28T04:31:45.814Z,82.22
2019-05-28T04:36:51.939Z,81.98
2019-05-28T04:41:58.268Z,82.37
2019-05-28T04:47:08.133Z,82.10
2019-05-28T04:52:11.871Z,82.68
2019-05-28T04:57:19.151Z,82.41
2019-05-28T05:02:25.917Z,82.91
2019-05-28T05:07:32.383Z,82.52
2019-05-28T05:12:38.398Z,82.80
2019-05-28T05:17:44.989Z,80.67
2019-05-28T05:22:51.079Z,80.60
2019-05-28T05:27:57.332Z,80.39
2019-05-28T05:33:19.164Z,80.69
2019-05-28T05:38:10.913Z,81.46
2019-05-28T05:43:17.084Z,81.72
2019-05-28T05:48:23.977Z,80.61
2019-05-28T05:53:30.158Z,80.44
2019-05-28T05:58:36.435Z,80.14
2019-05-28T06:03:42.819Z,81.78
2019-05-28T06:08:48.847Z,80.97
2019-05-28T06:13:55.286Z,81.24
2019-05-28T06:19:03.013Z,81.25
2019-05-28T06:24:09.151Z,81.02
2019-05-28T06:29:16.465Z,80.68
2019-05-28T06:34:22.534Z,81.12
2019-05-28T06:39:28.599Z,81.97
2019-05-28T06:44:34.730Z,81.67
2019-05-28T06:49:40.981Z,81.56
2019-05-28T06:54:47.130Z,81.04
2019-05-28T06:59:53.213Z,80.67
2019-05-28T07:04:59.379Z,80.50
2019-05-28T07:10:07.615Z,80.47
2019-05-28T07:15:14.830Z,80.61
2019-05-28T07:20:21.497Z,79.87
2019-05-28T07:25:27.982Z,79.70
2019-05-28T07:30:34.272Z,80.76
2019-05-28T07:35:45.848Z,80.62
2019-05-28T07:40:48.276Z,79.98
2019-05-28T07:45:54.397Z,79.39
2019-05-28T07:51:00.600Z,79.49
2019-05-28T07:56:06.717Z,79.96
2019-05-28T08:01:12.907Z,79.97
2019-05-28T08:06:18.977Z,80.22
2019-05-28T08:11:25.598Z,80.22
2019-05-28T08:16:31.874Z,80.52
2019-05-28T08:21:38.007Z,79.95
2019-05-28T08:26:44.126Z,80.42
2019-05-28T08:31:50.196Z,82.05
2019-05-28T08:37:05.706Z,81.78
2019-05-28T08:42:03.989Z,82.20
2019-05-28T08:47:10.174Z,81.57
2019-05-28T08:52:16.383Z,81.25
2019-05-28T08:57:23.034Z,80.83
2019-05-28T09:02:29.405Z,80.23
2019-05-28T09:07:35.906Z,81.05
2019-05-28T09:12:41.849Z,81.37
2019-05-28T09:17:48.134Z,82.26
2019-05-28T09:22:54.311Z,81.52
2019-05-28T09:28:00.278Z,81.92
2019-05-28T09:33:06.593Z,81.95
2019-05-28T09:38:13.249Z,81.62
2019-05-28T09:43:19.215Z,82.10
2019-05-28T09:48:25.165Z,80.22
2019-05-28T09:53:34.536Z,80.41
2019-05-28T09:58:38.867Z,80.28
2019-05-28T10:03:44.698Z,79.08
2019-05-28T10:08:50.600Z,79.27
2019-05-28T10:13:56.672Z,79.03
2019-05-28T10:19:02.772Z,79.70
2019-05-28T10:24:08.925Z,79.81
2019-05-28T10:29:14.896Z,79.39
2019-05-28T10:34:20.969Z,77.04
2019-05-28T10:39:26.935Z,78.99
2019-05-28T10:44:32.912Z,79.20
2019-05-28T10:49:38.886Z,79.56
2019-05-28T10:54:44.871Z,79.33
2019-05-28T10:59:50.722Z,77.61
2019-05-28T11:04:56.763Z,77.50
2019-05-28T11:10:02.868Z,78.29
2019-05-28T11:15:11.190Z,77.14
2019-05-28T11:20:18.690Z,77.67
2019-05-28T11:25:25.082Z,76.69
2019-05-28T11:30:31.606Z,76.52
2019-05-28T11:35:37.576Z,73.89
2019-05-28T11:40:44.018Z,72.32
2019-05-28T11:45:49.987Z,73.89
2019-05-28T11:50:55.957Z,73.30
2019-05-28T11:56:01.931Z,72.48
2019-05-28T12:01:08.023Z,70.91
2019-05-28T12:06:13.995Z,72.10
2019-05-28T12:11:20.069Z,72.15
2019-05-28T12:16:25.910Z,73.61
2019-05-28T12:21:32.092Z,73.59
2019-05-28T12:26:37.961Z,74.68
2019-05-28T12:31:43.925Z,75.62
2019-05-28T12:36:49.956Z,73.26
2019-05-28T12:42:03.153Z,72.94
2019-05-28T12:47:03.482Z,73.19
2019-05-28T12:52:09.580Z,75.08
2019-05-28T12:57:15.438Z,75.29
2019-05-28T13:02:21.390Z,76.65
2019-05-28T13:07:27.360Z,76.83
2019-05-28T13:12:33.235Z,76.28
2019-05-28T13:17:39.307Z,75.73
2019-05-28T13:22:45.278Z,76.45
2019-05-28T13:27:51.502Z,76.56
2019-05-28T13:32:57.744Z,76.00
2019-05-28T13:38:03.809Z,75.68
2019-05-28T13:43:09.881Z,75.00
2019-05-28T13:48:16.017Z,74.80
2019-05-28T13:53:21.880Z,75.13
2019-05-28T13:58:28.949Z,74.10
2019-05-28T14:03:34.883Z,74.25
2019-05-28T14:08:46.757Z,75.39
2019-05-28T14:13:48.368Z,76.10
2019-05-28T14:18:54.331Z,75.62
2019-05-28T14:24:00.165Z,74.94
2019-05-28T14:29:06.482Z,76.42
2019-05-28T14:34:12.560Z,74.88
2019-05-28T14:39:18.536Z,76.95
2019-05-28T14:44:24.637Z,76.64
2019-05-28T14:49:30.590Z,77.59
2019-05-28T14:54:36.649Z,78.28
2019-05-28T14:59:42.716Z,78.06
2019-05-28T15:04:48.598Z,79.04
2019-05-28T15:09:54.558Z,79.22
2019-05-28T15:15:00.630Z,79.32
2019-05-28T15:20:12.119Z,79.69
2019-05-28T15:25:18.563Z,79.66
2019-05-28T15:30:25.040Z,80.41
2019-05-28T15:35:31.083Z,79.96
2019-05-28T15:40:37.065Z,79.80
2019-05-28T15:45:43.020Z,77.89
2019-05-28T15:50:49.033Z,78.28
2019-05-28T15:55:55.053Z,79.24
2019-05-28T16:01:00.958Z,80.09
2019-05-28T16:06:07.111Z,79.85
2019-05-28T16:11:13.166Z,80.25
2019-05-28T16:16:19.144Z,80.68
2019-05-28T16:21:25.431Z,81.17
2019-05-28T16:26:31.488Z,81.65
2019-05-28T16:31:38.185Z,81.49
2019-05-28T16:36:46.943Z,81.59
2019-05-28T16:41:53.437Z,81.48
2019-05-28T16:47:16.208Z,82.38
2019-05-28T16:52:06.895Z,82.55
2019-05-28T16:57:13.579Z,82.71
2019-05-28T17:02:20.428Z,82.17
2019-05-28T17:07:26.960Z,82.94
2019-05-28T17:12:34.145Z,83.26
2019-05-28T17:17:40.625Z,83.08
2019-05-28T17:22:48.145Z,81.59
2019-05-28T17:27:54.418Z,82.07
2019-05-28T17:33:00.799Z,82.70
2019-05-28T17:38:06.976Z,82.53
2019-05-28T17:43:14.212Z,82.38
2019-05-28T17:48:20.855Z,82.17
2019-05-28T17:53:27.003Z,82.68
2019-05-28T17:58:33.283Z,83.96
2019-05-28T18:03:39.473Z,84.59
2019-05-28T18:08:45.923Z,84.21
2019-05-28T18:13:52.038Z,84.27
2019-05-28T18:19:00.552Z,84.28
2019-05-28T18:24:06.361Z,84.73
2019-05-28T18:29:13.560Z,84.58
2019-05-28T18:34:19.598Z,84.52
2019-05-28T18:39:25.796Z,84.30
2019-05-28T18:44:32.079Z,84.51
2019-05-28T18:49:38.228Z,84.69
2019-05-28T18:54:44.203Z,84.39
2019-05-28T18:59:50.179Z,84.72
2019-05-28T19:04:56.235Z,84.93
2019-05-28T19:10:02.212Z,84.89
2019-05-28T19:15:09.312Z,84.64
2019-05-28T19:20:15.869Z,84.57
2019-05-28T19:25:21.971Z,84.89
2019-05-28T19:30:35.858Z,84.74
2019-05-28T19:35:41.895Z,84.84
2019-05-28T19:40:47.866Z,84.82
2019-05-28T19:45:53.860Z,84.78
2019-05-28T19:51:00.293Z,84.73
2019-05-28T19:56:06.810Z,85.15
2019-05-28T20:01:12.890Z,85.39
2019-05-28T20:06:19.054Z,85.21
2019-05-28T20:11:25.137Z,85.26
2019-05-28T20:16:31.199Z,85.08
2019-05-28T20:21:37.274Z,84.79
2019-05-28T20:26:43.241Z,85.28
2019-05-28T20:31:49.212Z,84.76
2019-05-28T20:36:55.077Z,84.65
2019-05-28T20:42:01.965Z,84.87
2019-05-28T20:47:08.886Z,84.42
2019-05-28T20:52:15.141Z,84.56
2019-05-28T20:57:21.417Z,84.56
2019-05-28T21:02:27.285Z,84.37
2019-05-28T21:07:33.156Z,84.31
2019-05-28T21:12:44.304Z,84.46
2019-05-28T21:17:46.096Z,84.68
2019-05-28T21:22:51.886Z,84.85
2019-05-28T21:27:58.499Z,84.93
2019-05-28T21:33:04.703Z,85.02
2019-05-28T21:38:10.623Z,85.29
2019-05-28T21:43:16.591Z,85.44
2019-05-28T21:48:22.565Z,85.17
2019-05-28T21:53:28.945Z,84.97
2019-05-28T21:58:34.816Z,85.03
2019-05-28T22:03:40.677Z,84.89
2019-05-28T22:08:46.647Z,85.17
2019-05-28T22:13:52.623Z,84.98
2019-05-28T22:18:58.811Z,84.90
2019-05-28T22:24:05.281Z,84.95
2019-05-28T22:29:11.355Z,84.89
2019-05-28T22:34:17.325Z,85.03
2019-05-28T22:39:23.210Z,85.09
2019-05-28T22:44:29.215Z,85.16
2019-05-28T22:49:35.133Z,84.98
2019-05-28T22:54:41.106Z,84.99
2019-05-28T22:59:47.079Z,84.79
2019-05-28T23:04:52.941Z,84.66
2019-05-28T23:09:59.513Z,84.78
2019-05-28T23:15:10.722Z,84.77
2019-05-28T23:20:17.102Z,84.57
2019-05-28T23:25:23.072Z,84.50
2019-05-28T23:30:30.685Z,84.53
2019-05-28T23:35:36.551Z,84.43
2019-05-28T23:40:42.418Z,84.42
2019-05-28T23:45:48.392Z,84.46
2019-05-28T23:50:54.258Z,84.29
2019-05-28T23:56:00.126Z,84.50
